Ouzinkie, AK (99644)

1:56 AM AKDT on July 26, 2016 (GMT -0800)
Kodiak | | Change Station

Elev 112 ft 57.75 °N, 152.49 °W | Updated 3 minutes ago

Overcast
Overcast
53 °F
Feels Like 53 °F
N
10
Wind Variable Wind from NE

Today
High -- | Low -- °F
--% Chance of Precip.
Yesterday
High -- | Low -- °F
Precip. -- in
Pressure 29.79 in
Visibility 10.0 miles
Clouds Mostly Cloudy 2000 ft
Mostly Cloudy 2500 ft
Overcast 4900 ft
Dew Point 53 °F
Humidity 100%
Rainfall 0.00 in
Snow Depth Not available.
6:00 AM 10:39 PM
Waning Gibbous, 56% visible
METAR PADQ 260953Z 04009KT 10SM BKN020 BKN025 OVC049 12/12 A2979 RMK AO2 RAB21E29 SLP088 P0000 T01170117
Pressure 29.79 in
Visibility 10.0 miles
Clouds Mostly Cloudy 2000 ft
Mostly Cloudy 2500 ft
Overcast 4900 ft
Dew Point 53 °F
Humidity 100%
Rainfall 0.00 in
Snow Depth Not available.
6:00 AM 10:39 PM
Waning Gibbous, 56% visible
METAR PADQ 260953Z 04009KT 10SM BKN020 BKN025 OVC049 12/12 A2979 RMK AO2 RAB21E29 SLP088 P0000 T01170117

10-Day Weather Forecast

Almanac

Astronomy

Jul. 26, 2016 Rise Set
Actual Time
Civil Twilight
Nautical Twilight
Astronomical Twilight
Moon
Length of Visible Light
Length of Day
Tomorrow will be .
, % of the Moon is Illuminated

Today's Extremes

State Highs State Lows

Community

WunderPhotos

Upload Photos

1,927,557 photos uploaded!

WunderBlog® & News

Nearby

Air Quality

  Air Quality AQ Index Pollutant
Not available.

Snow Depth

Station Depth Elevation

Earthquake Activity

City Distance Mag. Time & Date
Minimum magnitude displayed is 2.5.

Coastal Water Temperatures

Place Temperature

Stations

Nearby Weather Stations

Station Location Temp. Windchill Dew Point Humidity Wind Precip. Elev Updated Type
                   

Watches & Warnings

There are currently no watches in effect.